Time;durP1;ratioP1;P1;durP2;ratioP2;P2;SDS_P1;SDS_P2;PMS_P1;PMS_P2;Temp;Humidity;BMP_temperature;BMP_pressure;BME280_temperature;BME280_humidity;BME280_pressure;Samples;Min_cycle;Max_cycle;Signal;HPM_P1;HPM_P2
2023/02/25 00:01:05;;;;;;;0.67;0.40;;;6.10;99.90;;;;;;5026900;28;20308;-86
2023/02/25 00:03:31;;;;;;;0.20;0.20;;;6.30;99.90;;;;;;5025636;28;20625;-87
2023/02/25 00:05:57;;;;;;;0.30;0.30;;;6.40;99.90;;;;;;5009268;28;20218;-85
2023/02/25 00:08:22;;;;;;;2.63;0.73;;;6.30;99.90;;;;;;5009122;28;20649;-84
2023/02/25 00:11:03;;;;;;;3.70;3.60;;;6.30;99.90;;;;;;5026156;28;20252;-85
2023/02/25 00:13:29;;;;;;;0.20;0.20;;;6.40;99.90;;;;;;5026794;28;20218;-85
2023/02/25 00:15:57;;;;;;;0.27;0.27;;;6.20;99.90;;;;;;5026129;28;20231;-86
2023/02/25 00:18:26;;;;;;;0.20;0.20;;;6.10;99.90;;;;;;5026853;28;20220;-85
2023/02/25 00:20:52;;;;;;;0.37;0.37;;;6.00;99.90;;;;;;5026704;28;20214;-87
2023/02/25 00:23:18;;;;;;;0.20;0.20;;;5.70;99.90;;;;;;5025039;28;20282;-87
2023/02/25 00:25:44;;;;;;;0.73;0.50;;;5.50;99.90;;;;;;5026180;28;20186;-86
2023/02/25 00:28:14;;;;;;;0.40;0.40;;;5.50;99.90;;;;;;5023432;28;20229;-85
2023/02/25 00:30:44;;;;;;;0.63;0.40;;;5.40;99.90;;;;;;5041726;28;20218;-86
2023/02/25 00:33:12;;;;;;;0.40;0.40;;;5.30;99.90;;;;;;5025476;28;20233;-87
2023/02/25 00:35:39;;;;;;;3.30;0.40;;;5.40;99.90;;;;;;5008704;28;20265;-86
2023/02/25 00:38:06;;;;;;;0.20;0.20;;;5.40;99.90;;;;;;5024129;28;20193;-84
2023/02/25 00:40:32;;;;;;;0.80;0.80;;;5.40;99.90;;;;;;5041616;28;20187;-86
2023/02/25 00:42:58;;;;;;;4.47;2.80;;;5.60;99.90;;;;;;5026517;28;20230;-87
2023/02/25 00:45:24;;;;;;;3.20;0.63;;;5.70;99.90;;;;;;5024860;28;20238;-85
2023/02/25 00:47:50;;;;;;;0.83;0.40;;;5.80;99.90;;;;;;5008846;28;20218;-85
2023/02/25 00:50:15;;;;;;;0.40;0.40;;;5.90;99.90;;;;;;5008476;28;21032;-87
2023/02/25 00:52:41;;;;;;;1.70;1.13;;;5.90;99.90;;;;;;5025193;28;20187;-85
2023/02/25 00:55:08;;;;;;;2.43;0.60;;;6.00;99.90;;;;;;5024496;28;20992;-85
2023/02/25 00:57:33;;;;;;;1.93;1.73;;;5.90;99.90;;;;;;5024606;28;20261;-85
2023/02/25 00:59:59;;;;;;;3.93;0.53;;;5.80;99.90;;;;;;5008679;28;20632;-86
2023/02/25 01:02:25;;;;;;;1.27;0.73;;;5.90;99.90;;;;;;5024769;28;21009;-86
2023/02/25 01:04:51;;;;;;;1.67;0.90;;;5.90;99.90;;;;;;5008173;28;20215;-85
2023/02/25 01:07:16;;;;;;;2.47;0.97;;;5.90;99.90;;;;;;5026152;28;20233;-85
2023/02/25 01:09:42;;;;;;;0.93;0.67;;;6.00;99.90;;;;;;5008540;28;20306;-86
2023/02/25 01:12:08;;;;;;;1.13;1.13;;;5.90;99.90;;;;;;5018780;28;21071;-85
2023/02/25 01:14:34;;;;;;;0.40;0.40;;;5.80;99.90;;;;;;5024205;28;20218;-88
2023/02/25 01:17:01;;;;;;;2.37;0.30;;;5.80;99.90;;;;;;5009217;28;20190;-85
2023/02/25 01:19:28;;;;;;;0.20;0.20;;;5.80;99.90;;;;;;5008554;28;20222;-86
2023/02/25 01:21:56;;;;;;;0.30;0.30;;;5.80;99.90;;;;;;5024365;28;20222;-85
2023/02/25 01:24:29;;;;;;;0.20;0.20;;;5.90;99.90;;;;;;5018823;28;20748;-86
2023/02/25 01:26:57;;;;;;;0.60;0.40;;;5.80;99.90;;;;;;5024753;28;20256;-86
2023/02/25 01:29:27;;;;;;;0.37;0.30;;;5.80;99.90;;;;;;5040216;28;20222;-89
2023/02/25 01:31:55;;;;;;;0.40;0.40;;;5.80;99.90;;;;;;5024536;28;20701;-88
2023/02/25 01:34:21;;;;;;;0.30;0.30;;;5.80;99.90;;;;;;5024440;28;20884;-85
2023/02/25 01:36:47;;;;;;;0.30;0.30;;;5.80;99.90;;;;;;5007684;28;20295;-85
2023/02/25 01:39:16;;;;;;;7.80;0.80;;;5.90;99.90;;;;;;5023749;28;20230;-85
2023/02/25 01:41:45;;;;;;;0.30;0.30;;;5.90;99.90;;;;;;5025334;28;20222;-86
2023/02/25 01:44:24;;;;;;;0.20;0.20;;;6.00;99.90;;;;;;5022835;28;20230;-90
2023/02/25 01:46:52;;;;;;;2.73;0.47;;;5.70;99.90;;;;;;5020421;28;20257;-88
2023/02/25 01:49:29;;;;;;;0.20;0.20;;;5.60;99.90;;;;;;5005953;28;20222;-86
2023/02/25 01:52:17;;;;;;;0.53;0.53;;;5.50;99.90;;;;;;5024329;28;20218;-85
2023/02/25 01:54:45;;;;;;;0.20;0.20;;;5.50;99.90;;;;;;5023573;28;20743;-85
2023/02/25 01:57:14;;;;;;;0.17;0.17;;;5.40;99.90;;;;;;5024549;28;20313;-88
2023/02/25 01:59:41;;;;;;;1.13;0.30;;;5.40;99.90;;;;;;5023993;28;20249;-86
2023/02/25 02:02:08;;;;;;;0.30;0.30;;;5.40;99.90;;;;;;5020435;28;20184;-88
2023/02/25 02:04:36;;;;;;;0.27;0.27;;;5.50;99.90;;;;;;5020639;28;20219;-88
2023/02/25 02:07:03;;;;;;;0.30;0.30;;;5.50;99.90;;;;;;5022170;28;20226;-85
2023/02/25 02:09:30;;;;;;;0.30;0.30;;;5.50;99.90;;;;;;5015059;28;20229;-84
2023/02/25 02:12:02;;;;;;;6.43;1.20;;;5.50;99.90;;;;;;5056677;28;20313;-86
2023/02/25 02:14:35;;;;;;;1.33;1.23;;;5.60;99.90;;;;;;5023183;28;20213;-85
2023/02/25 02:17:22;;;;;;;0.77;0.77;;;5.60;99.90;;;;;;5027551;28;20336;-86
2023/02/25 02:19:59;;;;;;;2.43;0.77;;;5.60;99.90;;;;;;5029814;28;20201;-85
2023/02/25 02:22:24;;;;;;;5.23;0.83;;;5.50;99.90;;;;;;5031143;28;20226;-85
2023/02/25 02:24:59;;;;;;;0.30;0.30;;;5.10;99.90;;;;;;5031269;28;20819;-86
2023/02/25 02:28:02;;;;;;;0.27;0.27;;;5.10;99.90;;;;;;5032268;28;20707;-86
2023/02/25 02:31:04;;;;;;;0.20;0.20;;;5.00;99.90;;;;;;5032100;28;20749;-86
2023/02/25 02:33:46;;;;;;;0.20;0.20;;;5.00;99.90;;;;;;5031893;28;20316;-88
2023/02/25 02:36:36;;;;;;;0.20;0.20;;;5.30;99.90;;;;;;5032387;28;20422;-85
2023/02/25 02:39:28;;;;;;;0.27;0.27;;;5.30;99.90;;;;;;5031904;28;20206;-87
2023/02/25 02:42:27;;;;;;;0.43;0.43;;;5.50;99.90;;;;;;5032687;28;20214;-85
2023/02/25 02:45:06;;;;;;;0.20;0.20;;;5.70;99.90;;;;;;5033814;28;20417;-86
2023/02/25 02:47:36;;;;;;;0.30;0.30;;;5.70;99.90;;;;;;5033760;28;20301;-87
2023/02/25 02:50:28;;;;;;;0.50;0.50;;;5.70;99.90;;;;;;5032769;28;20202;-85
2023/02/25 02:52:58;;;;;;;0.30;0.30;;;5.70;99.90;;;;;;5031617;28;20190;-85
2023/02/25 02:55:33;;;;;;;1.27;1.13;;;5.80;99.90;;;;;;5030320;28;20247;-86
2023/02/25 02:58:08;;;;;;;0.33;0.33;;;5.80;99.90;;;;;;5031771;28;20226;-85
2023/02/25 03:00:39;;;;;;;1.50;1.50;;;5.70;99.90;;;;;;5031630;28;20377;-88
2023/02/25 03:03:13;;;;;;;1.73;1.63;;;5.80;99.90;;;;;;5030643;28;20240;-84
2023/02/25 03:05:41;;;;;;;0.97;0.97;;;5.70;99.90;;;;;;5030654;28;20355;-87
2023/02/25 03:08:16;;;;;;;0.20;0.20;;;5.60;99.90;;;;;;5030647;28;20174;-86
2023/02/25 03:10:43;;;;;;;2.17;0.40;;;5.60;99.90;;;;;;5032215;28;20170;-86
2023/02/25 03:13:09;;;;;;;2.10;1.70;;;5.60;99.90;;;;;;5032296;28;20589;-86
2023/02/25 03:15:37;;;;;;;0.60;0.40;;;5.70;99.90;;;;;;5032003;28;20222;-86
2023/02/25 03:18:11;;;;;;;0.30;0.30;;;5.80;99.90;;;;;;5031864;28;20210;-88
2023/02/25 03:20:44;;;;;;;2.63;0.97;;;5.70;99.90;;;;;;5033332;28;20591;-86
2023/02/25 03:23:14;;;;;;;14.27;1.60;;;5.70;99.90;;;;;;5032864;28;20659;-86
2023/02/25 03:25:53;;;;;;;0.23;0.23;;;5.70;99.90;;;;;;5033289;28;20207;-85
2023/02/25 03:28:30;;;;;;;8.93;0.93;;;5.60;99.90;;;;;;5031122;28;20222;-86
2023/02/25 03:31:05;;;;;;;0.70;0.70;;;5.40;99.90;;;;;;5031947;28;20222;-83
2023/02/25 03:33:33;;;;;;;0.50;0.50;;;5.40;99.90;;;;;;5031768;28;20214;-88
2023/02/25 03:36:02;;;;;;;7.53;0.97;;;5.30;99.90;;;;;;5032616;28;20227;-85
2023/02/25 03:38:32;;;;;;;4.10;0.40;;;5.30;99.90;;;;;;5031237;28;20293;-86
2023/02/25 03:41:01;;;;;;;0.73;0.73;;;5.20;99.90;;;;;;5032339;28;20171;-88
2023/02/25 03:43:32;;;;;;;0.33;0.33;;;5.10;99.90;;;;;;5031451;28;20203;-88
2023/02/25 03:45:59;;;;;;;0.20;0.20;;;5.00;99.90;;;;;;5031677;28;20738;-88
2023/02/25 03:48:26;;;;;;;0.30;0.30;;;5.10;99.90;;;;;;5031732;28;20218;-88
2023/02/25 03:50:58;;;;;;;0.20;0.20;;;5.20;99.90;;;;;;5031374;28;20470;-86
2023/02/25 03:53:25;;;;;;;2.23;0.50;;;5.20;99.90;;;;;;5031236;28;20226;-85
2023/02/25 03:55:51;;;;;;;0.40;0.40;;;5.10;99.90;;;;;;5031754;28;20240;-85
2023/02/25 03:58:17;;;;;;;0.40;0.40;;;5.10;99.90;;;;;;5014736;28;20234;-87
2023/02/25 04:00:46;;;;;;;0.30;0.30;;;5.10;99.90;;;;;;5031160;28;20363;-86
2023/02/25 04:03:12;;;;;;;0.30;0.30;;;5.10;99.90;;;;;;5031071;28;20221;-86
2023/02/25 04:05:37;;;;;;;3.13;2.30;;;5.10;99.90;;;;;;5031047;28;20584;-86
2023/02/25 04:08:14;;;;;;;0.20;0.20;;;5.10;99.90;;;;;;5031170;28;20206;-86
2023/02/25 04:10:42;;;;;;;0.40;0.40;;;5.10;99.90;;;;;;5031696;28;20662;-85
2023/02/25 04:13:08;;;;;;;2.37;1.73;;;5.20;99.90;;;;;;5014952;28;20784;-87
2023/02/25 04:15:34;;;;;;;0.23;0.23;;;5.10;99.90;;;;;;5030892;28;20252;-88
2023/02/25 04:18:00;;;;;;;0.40;0.40;;;5.20;99.90;;;;;;5030929;28;20793;-86
2023/02/25 04:20:28;;;;;;;0.20;0.20;;;5.20;99.90;;;;;;5029723;28;20214;-87
2023/02/25 04:22:54;;;;;;;1.03;0.97;;;5.30;99.90;;;;;;5014514;28;20183;-87
2023/02/25 04:25:20;;;;;;;0.27;0.27;;;5.30;99.90;;;;;;5013796;28;20221;-85
2023/02/25 04:27:46;;;;;;;0.50;0.50;;;5.30;99.90;;;;;;5030624;28;20215;-87
2023/02/25 04:30:13;;;;;;;1.07;0.93;;;5.30;99.90;;;;;;5013862;28;20218;-86
2023/02/25 04:32:39;;;;;;;0.57;0.57;;;5.30;99.90;;;;;;5013789;28;20225;-86
2023/02/25 04:35:08;;;;;;;0.10;0.10;;;5.10;99.90;;;;;;5013420;28;20210;-88
2023/02/25 04:37:34;;;;;;;3.03;0.97;;;5.00;99.90;;;;;;5030234;28;20200;-88
2023/02/25 04:40:00;;;;;;;2.37;0.53;;;4.90;99.90;;;;;;5030703;28;20675;-86
2023/02/25 04:42:26;;;;;;;0.20;0.20;;;4.90;99.90;;;;;;5013457;28;20788;-84
2023/02/25 04:44:51;;;;;;;0.30;0.30;;;4.90;99.90;;;;;;5013663;28;20229;-85
2023/02/25 04:47:18;;;;;;;0.40;0.40;;;5.00;99.90;;;;;;5030086;28;20296;-86
2023/02/25 04:49:43;;;;;;;1.40;0.87;;;5.00;99.90;;;;;;5031043;28;20247;-86
2023/02/25 04:52:14;;;;;;;0.73;0.73;;;5.00;99.90;;;;;;5031276;28;20459;-87
2023/02/25 04:54:39;;;;;;;0.20;0.20;;;5.10;99.90;;;;;;5031067;28;20227;-88
2023/02/25 04:57:06;;;;;;;1.27;1.27;;;5.30;99.90;;;;;;5029713;28;20284;-88
2023/02/25 04:59:32;;;;;;;0.20;0.20;;;5.40;99.90;;;;;;5029725;28;20253;-87
2023/02/25 05:01:58;;;;;;;0.77;0.77;;;5.40;99.90;;;;;;5029649;28;20244;-86
2023/02/25 05:04:24;;;;;;;0.27;0.27;;;5.40;99.90;;;;;;5030613;28;20182;-85
2023/02/25 05:06:50;;;;;;;0.60;0.60;;;5.40;99.90;;;;;;5013551;28;20676;-83
2023/02/25 05:09:16;;;;;;;0.30;0.30;;;5.50;99.90;;;;;;5029746;28;20218;-82
2023/02/25 05:11:41;;;;;;;0.20;0.20;;;5.50;99.90;;;;;;5012495;28;20211;-85
2023/02/25 05:14:08;;;;;;;0.70;0.43;;;5.50;99.90;;;;;;5028872;28;20774;-85
2023/02/25 05:16:34;;;;;;;11.93;1.50;;;5.50;99.90;;;;;;5029711;28;20178;-85
2023/02/25 05:19:00;;;;;;;0.30;0.30;;;5.50;99.90;;;;;;5012978;28;20214;-86
2023/02/25 05:21:26;;;;;;;1.23;1.13;;;5.50;99.90;;;;;;5029562;28;20234;-87
2023/02/25 05:23:53;;;;;;;1.20;1.13;;;5.40;99.90;;;;;;5030809;28;20421;-86
2023/02/25 05:26:20;;;;;;;0.47;0.33;;;5.50;99.90;;;;;;5029167;28;20230;-85
2023/02/25 05:28:55;;;;;;;0.73;0.70;;;5.50;99.90;;;;;;5012814;28;20179;-87
2023/02/25 05:31:23;;;;;;;0.20;0.20;;;5.50;99.90;;;;;;5029243;28;20205;-86
2023/02/25 05:33:49;;;;;;;0.20;0.20;;;5.50;99.90;;;;;;5029524;28;20935;-86
2023/02/25 05:36:16;;;;;;;0.23;0.23;;;5.50;99.90;;;;;;5029427;28;20278;-85
2023/02/25 05:38:43;;;;;;;0.30;0.30;;;5.60;99.90;;;;;;5030387;28;20325;-85
2023/02/25 05:41:10;;;;;;;0.30;0.30;;;5.50;99.90;;;;;;5029679;28;20194;-85
2023/02/25 05:43:37;;;;;;;0.20;0.20;;;5.50;99.90;;;;;;5013760;28;20193;-86
2023/02/25 05:46:10;;;;;;;0.20;0.20;;;5.50;99.90;;;;;;5029405;28;20271;-88
2023/02/25 05:48:38;;;;;;;0.90;0.90;;;5.50;99.90;;;;;;5030683;28;20249;-86
2023/02/25 05:51:11;;;;;;;0.33;0.33;;;5.50;99.90;;;;;;5030314;28;20238;-86
2023/02/25 05:53:37;;;;;;;0.10;0.10;;;5.40;99.90;;;;;;5030227;28;20236;-88
2023/02/25 05:56:06;;;;;;;0.40;0.40;;;5.10;99.90;;;;;;5029330;28;20226;-87
2023/02/25 05:58:32;;;;;;;0.40;0.40;;;4.90;99.90;;;;;;5030810;28;20281;-86
2023/02/25 06:00:58;;;;;;;0.30;0.30;;;4.80;99.90;;;;;;5013230;28;20242;-86
2023/02/25 06:03:24;;;;;;;0.20;0.20;;;4.70;99.90;;;;;;5029493;28;20218;-88
2023/02/25 06:05:52;;;;;;;0.40;0.40;;;4.50;99.90;;;;;;5029222;28;20226;-86
2023/02/25 06:08:17;;;;;;;1.63;1.53;;;4.50;99.90;;;;;;5012974;28;20297;-85
2023/02/25 06:10:43;;;;;;;0.53;0.53;;;4.50;99.90;;;;;;5029368;28;20578;-86
2023/02/25 06:13:11;;;;;;;5.10;1.47;;;4.60;99.90;;;;;;5029129;28;20226;-84
2023/02/25 06:15:41;;;;;;;0.30;0.30;;;4.60;99.90;;;;;;5029156;28;20222;-84
2023/02/25 06:18:08;;;;;;;1.13;1.03;;;4.60;99.90;;;;;;5030230;28;20671;-84
2023/02/25 06:20:34;;;;;;;10.50;1.77;;;4.70;99.90;;;;;;5029951;28;20245;-85
2023/02/25 06:23:01;;;;;;;6.40;0.70;;;4.70;99.90;;;;;;5030412;28;20269;-85
2023/02/25 06:25:28;;;;;;;0.47;0.47;;;4.70;99.90;;;;;;5012306;28;20602;-86
2023/02/25 06:28:01;;;;;;;1.40;0.67;;;4.70;99.90;;;;;;5012458;28;20215;-89
2023/02/25 06:30:28;;;;;;;0.67;0.67;;;4.70;99.90;;;;;;5029613;28;20237;-86
2023/02/25 06:32:55;;;;;;;2.00;0.73;;;4.70;99.90;;;;;;5012175;28;20218;-89
2023/02/25 06:35:22;;;;;;;0.47;0.30;;;4.70;99.90;;;;;;5028243;28;20679;-86
2023/02/25 06:37:58;;;;;;;0.50;0.50;;;4.70;99.90;;;;;;5029230;28;20761;-84
2023/02/25 06:40:25;;;;;;;10.83;0.67;;;4.70;99.90;;;;;;5028851;28;20214;-86
2023/02/25 06:42:51;;;;;;;0.83;0.83;;;4.80;99.90;;;;;;5004755;28;20382;-84
2023/02/25 06:45:17;;;;;;;0.60;0.23;;;4.90;99.90;;;;;;5027805;28;20686;-86
2023/02/25 06:47:43;;;;;;;1.30;1.20;;;4.90;99.90;;;;;;5027842;28;20219;-85
2023/02/25 06:50:09;;;;;;;0.20;0.20;;;4.90;99.90;;;;;;5012127;28;20663;-86
2023/02/25 06:52:35;;;;;;;0.20;0.20;;;4.80;99.90;;;;;;5030064;28;20226;-84
2023/02/25 06:55:01;;;;;;;0.30;0.30;;;4.80;99.90;;;;;;5028203;28;20250;-87
2023/02/25 06:57:27;;;;;;;0.20;0.20;;;4.80;99.90;;;;;;5028705;28;20314;-84
2023/02/25 06:59:52;;;;;;;0.67;0.67;;;4.60;99.90;;;;;;5028721;28;20305;-85
2023/02/25 07:02:18;;;;;;;0.40;0.40;;;4.60;99.90;;;;;;5014557;28;20183;-85
2023/02/25 07:04:44;;;;;;;0.20;0.20;;;4.80;99.90;;;;;;5016367;28;20190;-87
2023/02/25 07:07:10;;;;;;;0.30;0.30;;;5.00;99.90;;;;;;5032203;28;20760;-84
2023/02/25 07:09:36;;;;;;;0.40;0.40;;;5.00;99.90;;;;;;5030382;28;20225;-85
2023/02/25 07:12:02;;;;;;;0.50;0.50;;;5.30;99.90;;;;;;5014395;28;20210;-85
2023/02/25 07:14:27;;;;;;;0.60;0.60;;;5.30;99.90;;;;;;5014578;28;21145;-86
2023/02/25 07:16:53;;;;;;;0.30;0.30;;;5.80;99.90;;;;;;5035272;28;20238;-86
2023/02/25 07:19:19;;;;;;;0.30;0.30;;;6.10;99.90;;;;;;5014912;28;20361;-85
2023/02/25 07:21:44;;;;;;;1.60;1.40;;;6.60;99.90;;;;;;5013855;28;20214;-87
2023/02/25 07:24:11;;;;;;;0.30;0.30;;;6.40;99.90;;;;;;5031875;28;20218;-85
2023/02/25 07:26:37;;;;;;;1.07;0.43;;;6.10;99.90;;;;;;5015994;28;20668;-87
2023/02/25 07:29:05;;;;;;;0.40;0.40;;;5.80;99.90;;;;;;5031797;28;20810;-85
2023/02/25 07:31:31;;;;;;;0.77;0.77;;;6.00;99.90;;;;;;5033922;28;20186;-86
2023/02/25 07:34:03;;;;;;;0.13;0.13;;;5.90;99.90;;;;;;5031631;28;20223;-85
2023/02/25 07:36:34;;;;;;;0.40;0.40;;;6.00;99.90;;;;;;5031915;28;20218;-87
2023/02/25 07:39:03;;;;;;;1.10;0.90;;;6.10;99.90;;;;;;5031831;28;20276;-86
2023/02/25 07:41:28;;;;;;;12.13;0.97;;;5.90;99.90;;;;;;5031669;28;20222;-86
2023/02/25 07:43:55;;;;;;;0.20;0.20;;;6.00;99.90;;;;;;5032546;28;20182;-86
2023/02/25 07:46:21;;;;;;;8.20;0.50;;;6.10;99.90;;;;;;5032571;28;20214;-85
2023/02/25 07:48:47;;;;;;;0.20;0.20;;;6.40;99.90;;;;;;5015492;28;20219;-85
2023/02/25 07:51:17;;;;;;;0.37;0.37;;;6.80;99.90;;;;;;5031417;28;20238;-85
2023/02/25 07:53:48;;;;;;;1.13;0.60;;;7.00;99.90;;;;;;5032345;28;20656;-84
2023/02/25 07:56:15;;;;;;;1.07;1.07;;;7.10;99.90;;;;;;5015075;28;20780;-83
2023/02/25 07:58:41;;;;;;;2.80;1.17;;;7.40;99.90;;;;;;5032935;28;20319;-84
2023/02/25 08:01:08;;;;;;;0.47;0.43;;;8.10;99.90;;;;;;5032073;28;20712;-85
2023/02/25 08:03:34;;;;;;;1.33;0.83;;;9.30;99.90;;;;;;5031884;28;20210;-85
2023/02/25 08:06:01;;;;;;;2.13;0.53;;;10.00;99.90;;;;;;5031097;28;20654;-85
2023/02/25 08:08:27;;;;;;;0.97;0.53;;;9.80;99.90;;;;;;5030916;28;20210;-86
2023/02/25 08:10:53;;;;;;;1.23;1.17;;;10.10;99.90;;;;;;5032164;28;20179;-86
2023/02/25 08:13:19;;;;;;;2.23;0.67;;;9.20;99.90;;;;;;5030596;28;20219;-86
2023/02/25 08:15:45;;;;;;;1.23;0.57;;;8.50;99.90;;;;;;5030725;28;20704;-86
2023/02/25 08:18:11;;;;;;;0.40;0.40;;;8.80;99.90;;;;;;5030917;28;20228;-87
2023/02/25 08:20:37;;;;;;;0.20;0.20;;;9.60;99.90;;;;;;5030839;28;20293;-89
2023/02/25 08:23:03;;;;;;;2.57;1.30;;;9.80;99.90;;;;;;5032100;28;20771;-86
2023/02/25 08:25:29;;;;;;;3.50;1.07;;;9.80;99.90;;;;;;5014917;28;20912;-86
2023/02/25 08:27:54;;;;;;;3.50;0.50;;;8.20;99.90;;;;;;5014234;28;20215;-90
2023/02/25 08:30:20;;;;;;;3.10;0.40;;;6.70;99.90;;;;;;5013390;28;20223;-89
2023/02/25 08:32:46;;;;;;;0.20;0.20;;;6.00;99.90;;;;;;5029391;28;20645;-89
2023/02/25 08:35:13;;;;;;;0.50;0.50;;;5.80;99.90;;;;;;5013760;28;20245;-88
2023/02/25 08:37:39;;;;;;;0.10;0.10;;;5.80;99.90;;;;;;5014140;28;20214;-87
2023/02/25 08:40:09;;;;;;;0.20;0.20;;;5.70;99.90;;;;;;5012758;28;20246;-86
2023/02/25 08:42:35;;;;;;;0.20;0.20;;;5.70;99.90;;;;;;5029108;28;20217;-86
2023/02/25 08:45:02;;;;;;;1.13;1.07;;;5.80;99.90;;;;;;5029111;28;20218;-86
2023/02/25 08:47:28;;;;;;;0.20;0.20;;;6.00;99.90;;;;;;5012534;28;20240;-85
2023/02/25 08:49:53;;;;;;;0.83;0.83;;;6.10;99.90;;;;;;5013949;28;20171;-88
2023/02/25 08:52:19;;;;;;;0.20;0.20;;;6.80;99.90;;;;;;5030812;28;20575;-87
2023/02/25 08:54:45;;;;;;;0.30;0.30;;;7.70;99.90;;;;;;5013041;28;20738;-88
2023/02/25 08:57:11;;;;;;;0.40;0.40;;;8.00;99.90;;;;;;5029303;28;20233;-88
2023/02/25 08:59:37;;;;;;;11.03;0.40;;;7.70;99.90;;;;;;5012996;28;20218;-86
2023/02/25 09:02:05;;;;;;;0.10;0.10;;;7.30;99.90;;;;;;5013064;28;20624;-87
2023/02/25 09:04:32;;;;;;;2.50;0.93;;;7.10;99.90;;;;;;5029109;28;20189;-87
2023/02/25 09:06:59;;;;;;;2.00;0.40;;;7.20;99.90;;;;;;5028365;28;20219;-87
2023/02/25 09:09:25;;;;;;;0.20;0.20;;;7.30;99.90;;;;;;5011969;28;20215;-88
2023/02/25 09:11:52;;;;;;;4.00;0.63;;;7.10;99.90;;;;;;5012140;28;20684;-88
2023/02/25 09:14:19;;;;;;;1.47;0.27;;;6.80;99.90;;;;;;5028887;28;20202;-89
2023/02/25 09:16:45;;;;;;;0.77;0.77;;;6.60;99.90;;;;;;5029418;28;20248;-88
2023/02/25 09:19:11;;;;;;;13.47;0.77;;;6.50;99.90;;;;;;5012342;28;20637;-87
2023/02/25 09:21:41;;;;;;;2.53;2.10;;;6.30;99.90;;;;;;5012409;28;20215;-90
2023/02/25 09:24:07;;;;;;;2.40;0.53;;;6.40;99.90;;;;;;5029374;28;20295;-89
2023/02/25 09:26:33;;;;;;;0.63;0.40;;;6.70;99.90;;;;;;5029981;28;20213;-89
2023/02/25 09:29:00;;;;;;;0.20;0.20;;;6.70;99.90;;;;;;5013600;28;20183;-88
2023/02/25 09:31:26;;;;;;;5.40;2.20;;;6.60;99.90;;;;;;5037731;28;20193;-88
2023/02/25 09:33:52;;;;;;;1.47;1.37;;;6.50;99.90;;;;;;5017384;28;20219;-90
2023/02/25 09:36:19;;;;;;;2.83;0.40;;;6.40;99.90;;;;;;5013663;28;20325;-89
2023/02/25 09:38:47;;;;;;;0.47;0.47;;;6.30;99.90;;;;;;5029775;28;20207;-89
2023/02/25 09:41:36;;;;;;;0.23;0.23;;;6.60;99.90;;;;;;5030310;28;20171;-89
2023/02/25 09:44:04;;;;;;;0.30;0.30;;;6.90;99.90;;;;;;5029752;28;20186;-88
2023/02/25 09:46:33;;;;;;;0.30;0.30;;;7.00;99.90;;;;;;5029957;28;20675;-87
2023/02/25 09:49:08;;;;;;;0.80;0.53;;;6.80;99.90;;;;;;5030550;28;20297;-89
2023/02/25 09:51:44;;;;;;;6.03;0.80;;;6.50;99.90;;;;;;5030557;28;20241;-88
2023/02/25 09:54:21;;;;;;;0.27;0.27;;;6.30;99.90;;;;;;5030453;28;20305;-90
2023/02/25 09:56:48;;;;;;;0.53;0.40;;;6.30;99.90;;;;;;5029415;28;20237;-88
2023/02/25 09:59:16;;;;;;;0.67;0.30;;;6.30;99.90;;;;;;5029589;28;20179;-89
2023/02/25 10:01:49;;;;;;;0.50;0.50;;;6.40;99.90;;;;;;5031113;28;20357;-87
2023/02/25 10:04:29;;;;;;;1.80;0.30;;;6.50;99.90;;;;;;5029286;28;20230;-89
2023/02/25 10:06:56;;;;;;;1.00;0.27;;;6.60;99.90;;;;;;5029349;28;20473;-88
2023/02/25 10:09:28;;;;;;;0.40;0.40;;;6.70;99.90;;;;;;5013144;28;20680;-89
2023/02/25 10:12:09;;;;;;;3.17;0.20;;;6.50;99.90;;;;;;5029492;28;20792;-89
2023/02/25 10:15:23;;;;;;;1.83;1.03;;;6.20;99.90;;;;;;5030280;28;20823;-88
2023/02/25 10:18:10;;;;;;;2.53;0.50;;;6.20;99.90;;;;;;5028637;28;20211;-89
2023/02/25 10:21:18;;;;;;;0.50;0.50;;;6.30;99.90;;;;;;5029569;28;20269;-89
2023/02/25 10:23:50;;;;;;;0.33;0.33;;;6.30;99.90;;;;;;5030440;28;20214;-91
2023/02/25 10:26:28;;;;;;;0.40;0.40;;;6.40;99.90;;;;;;5029703;28;20202;-87
2023/02/25 10:29:03;;;;;;;0.87;0.87;;;6.50;99.90;;;;;;5030006;28;20171;-90
2023/02/25 10:31:30;;;;;;;1.53;0.40;;;6.50;99.90;;;;;;5030299;28;20252;-87
2023/02/25 10:33:57;;;;;;;0.33;0.33;;;6.60;99.90;;;;;;5012660;28;20272;-88
2023/02/25 10:36:42;;;;;;;0.30;0.30;;;6.70;99.90;;;;;;5029926;28;20238;-88
2023/02/25 10:39:09;;;;;;;0.17;0.17;;;6.60;99.90;;;;;;5032868;28;20214;-90
2023/02/25 10:41:36;;;;;;;1.80;1.10;;;6.50;99.90;;;;;;5033154;28;20668;-87
2023/02/25 10:44:01;;;;;;;0.20;0.20;;;6.40;99.90;;;;;;5032838;28;20179;-86
2023/02/25 10:46:42;;;;;;;0.20;0.20;;;6.50;99.90;;;;;;5033432;28;20628;-86
2023/02/25 10:49:15;;;;;;;0.33;0.33;;;6.40;99.90;;;;;;5032711;28;20218;-87
2023/02/25 10:52:23;;;;;;;0.93;0.90;;;6.70;99.90;;;;;;5033884;28;20225;-91
2023/02/25 10:54:51;;;;;;;0.30;0.30;;;7.30;99.90;;;;;;5032233;28;20691;-90
2023/02/25 10:57:40;;;;;;;2.47;2.10;;;7.30;99.90;;;;;;5032651;28;20234;-87
2023/02/25 11:00:22;;;;;;;0.60;0.60;;;7.70;99.90;;;;;;5033594;28;20218;-89
2023/02/25 11:02:50;;;;;;;2.57;1.87;;;8.00;99.90;;;;;;5033778;28;20210;-87
2023/02/25 11:05:35;;;;;;;0.20;0.20;;;8.20;99.90;;;;;;5033683;28;20187;-88
2023/02/25 11:08:09;;;;;;;1.07;0.67;;;8.10;99.90;;;;;;5033515;28;20175;-87
2023/02/25 11:10:35;;;;;;;5.50;0.40;;;8.50;99.90;;;;;;5034129;28;20366;-89
2023/02/25 11:13:03;;;;;;;0.40;0.40;;;8.60;99.90;;;;;;5032162;28;20217;-86
2023/02/25 11:15:37;;;;;;;2.03;1.93;;;8.80;99.90;;;;;;5016137;28;20234;-86
2023/02/25 11:18:15;;;;;;;1.03;1.03;;;9.00;99.90;;;;;;5015596;28;20214;-87
2023/02/25 11:20:52;;;;;;;0.87;0.50;;;8.70;99.90;;;;;;5033251;28;20272;-88
2023/02/25 11:23:34;;;;;;;0.37;0.37;;;7.80;99.90;;;;;;5032363;28;20755;-88
2023/02/25 11:26:00;;;;;;;0.27;0.27;;;7.70;99.90;;;;;;5033251;28;20182;-88
2023/02/25 11:28:34;;;;;;;0.53;0.53;;;7.90;99.90;;;;;;5032947;28;20183;-88
2023/02/25 11:31:22;;;;;;;2.27;0.77;;;8.10;99.90;;;;;;5032112;28;20222;-88
2023/02/25 11:34:29;;;;;;;1.80;0.50;;;8.40;99.90;;;;;;5031537;28;20214;-88
2023/02/25 11:36:58;;;;;;;0.23;0.23;;;8.30;99.90;;;;;;5030677;28;20309;-88
2023/02/25 11:39:31;;;;;;;0.40;0.40;;;8.40;99.90;;;;;;5030535;28;20302;-87
2023/02/25 11:42:01;;;;;;;1.83;0.47;;;8.40;99.90;;;;;;5015458;28;20218;-87
2023/02/25 11:44:42;;;;;;;1.17;0.87;;;8.50;99.90;;;;;;5031779;28;20218;-88
2023/02/25 11:47:33;;;;;;;0.60;0.60;;;8.50;99.90;;;;;;5031329;28;20171;-89
2023/02/25 11:50:04;;;;;;;0.40;0.40;;;8.40;99.90;;;;;;5032379;28;20589;-89
2023/02/25 11:52:45;;;;;;;0.33;0.27;;;8.30;99.90;;;;;;5042378;28;20198;-88
2023/02/25 11:55:39;;;;;;;0.30;0.30;;;8.50;99.90;;;;;;5032521;28;20509;-89
2023/02/25 11:58:40;;;;;;;0.70;0.70;;;8.60;99.90;;;;;;5030540;28;20231;-86
2023/02/25 12:01:23;;;;;;;0.30;0.30;;;8.50;99.90;;;;;;5030375;28;20222;-88
2023/02/25 12:04:17;;;;;;;0.33;0.33;;;8.10;99.90;;;;;;5031175;28;20214;-87
2023/02/25 12:07:22;;;;;;;0.27;0.27;;;7.90;99.90;;;;;;5031281;28;20214;-88
2023/02/25 12:10:10;;;;;;;1.03;0.30;;;7.90;99.90;;;;;;5032431;28;20240;-86
2023/02/25 12:12:55;;;;;;;0.33;0.30;;;7.90;99.90;;;;;;5031683;28;20242;-87
2023/02/25 12:15:33;;;;;;;0.20;0.20;;;7.90;99.90;;;;;;5030714;28;20234;-90
2023/02/25 12:18:27;;;;;;;0.53;0.43;;;7.50;99.90;;;;;;5030200;28;20222;-87
2023/02/25 12:21:14;;;;;;;0.70;0.70;;;7.30;99.90;;;;;;5030672;28;20714;-89
2023/02/25 12:23:58;;;;;;;0.60;0.40;;;7.50;99.90;;;;;;5032043;28;20310;-85
2023/02/25 12:27:06;;;;;;;0.83;0.57;;;7.60;99.90;;;;;;5030651;28;20219;-88
2023/02/25 12:29:43;;;;;;;2.27;0.37;;;7.60;99.90;;;;;;5030424;28;20218;-89
2023/02/25 12:32:36;;;;;;;5.43;0.33;;;7.40;99.90;;;;;;5030730;28;20554;-87
2023/02/25 12:35:37;;;;;;;2.00;1.90;;;7.40;99.90;;;;;;5031422;28;20222;-85
2023/02/25 12:38:27;;;;;;;4.10;2.43;;;7.40;99.90;;;;;;5029593;28;20189;-87
2023/02/25 12:41:19;;;;;;;0.40;0.20;;;7.60;99.90;;;;;;5030835;28;20217;-88
2023/02/25 12:44:07;;;;;;;0.70;0.40;;;7.60;99.90;;;;;;5030777;28;20190;-86
2023/02/25 12:47:00;;;;;;;0.30;0.30;;;7.40;99.90;;;;;;5030433;28;20202;-87
2023/02/25 12:50:05;;;;;;;0.20;0.20;;;7.20;99.90;;;;;;5029080;28;20278;-87
2023/02/25 12:52:52;;;;;;;6.97;0.60;;;7.10;99.90;;;;;;5047469;28;20201;-87
2023/02/25 12:55:39;;;;;;;0.20;0.20;;;7.30;99.90;;;;;;5030492;28;20226;-87
2023/02/25 12:58:29;;;;;;;3.27;1.30;;;7.30;99.90;;;;;;5033598;28;20597;-88
2023/02/25 13:01:27;;;;;;;0.90;0.90;;;7.10;99.90;;;;;;5028491;28;20314;-87
2023/02/25 13:03:55;;;;;;;1.80;0.77;;;7.00;99.90;;;;;;5030170;28;20221;-87
2023/02/25 13:06:59;;;;;;;0.30;0.30;;;6.80;99.90;;;;;;5029921;28;20218;-86
2023/02/25 13:09:49;;;;;;;2.20;0.70;;;6.90;99.90;;;;;;5030862;28;20228;-86
2023/02/25 13:12:59;;;;;;;0.77;0.53;;;7.20;99.90;;;;;;5029663;28;20218;-85
2023/02/25 13:15:39;;;;;;;0.27;0.20;;;7.20;99.90;;;;;;5029928;28;20313;-86
2023/02/25 13:18:21;;;;;;;0.40;0.40;;;6.90;99.90;;;;;;5030779;28;20214;-88
2023/02/25 13:21:11;;;;;;;2.73;0.77;;;6.90;99.90;;;;;;5029657;28;20231;-88
2023/02/25 13:23:40;;;;;;;0.40;0.40;;;7.00;99.90;;;;;;5029640;28;20218;-87